Aérodrome :
LOGIN :

S'inscrire | Disclaimer

   EN    FR    IT 

 










Légende :    VFR   VFR Marginal   IFR   IFR Intensif   IFR Très Intensif
Visi : 
Plafond : 
>= 8 km
>= 3000ft
5 à 8 km
1000 à 3000 ft
1500m à 5 km
500 à 1000 ft
800 à 1500m
200 à 500 ft
< 800m
< 200 ft
Symboles :   Orages  Brouillard  Fortes neiges  Fortes précipitations  Vent > 20 kt
SIGMETs :   Divers  Orages  Givrage  Turbulence  Onde Orograph.  Cendres Volcan.






- Altitude de l'aérodrome : 458 ft


LFSI - St-Dizier

DERNIER METAR :
  • 291100Z AUTO 17007KT 130V210 CAVOK 12/05 Q1013

METARs EXPIRÉS :
  • 291030Z AUTO 16007KT 130V190 CAVOK 10/05 Q1013
  • 291000Z AUTO 18008KT CAVOK 09/04 Q1014
  • 290930Z AUTO 16007KT 130V200 9999 0150 R11/M0200D // NSC 09/04 Q1014
  • 290900Z AUTO 16007KT 120V190 CAVOK 07/03 Q1015
  • 290830Z AUTO 14005KT 110V180 CAVOK 06/02 Q1015
  • 290800Z AUTO 11005KT CAVOK 04/02 Q1016
  • 290730Z AUTO 11008KT 8000 NSC 02/01 Q1016
  • 290700Z AUTO 11006KT 6000 NSC 01/00 Q1016
  • 290630Z AUTO 12006KT 7000 NSC 01/01 Q1016
  • 290600Z AUTO 12007KT 6000 NSC 00/00 Q1016

TAF TAF LFSI
Valide du 29 à 09h jusqu'au 01 à 09h UTC


290800Z 2909/0109 18010KT 9999 FEW020 SCT040
BECMG 0103/0105 27015KT 7000 RA BKN010 BKN015 BKN020
BECMG 0106/0108 21010KT 9999 NSW SCT010 BKN025



MET'MAP, la Météo Aéronautique d'un coup d'oeil ! - Copyright ORBIFLY Décembre 2007 - Disclaimer

ORBIFLY MET'MAP TEAM :

Programmation & Développement : Alexandra Zaïnal
Sur une idée originale de : Baudouin d'Aumeries
Soutien technique & logistique : Manuel Goepfert
Assistance : Marc-Olivier Méhu




SOURCES & CREDITS :

   NOAA